Zaliv Vostok — A8RM6 — position and weather

sailwx.info

Track history (hours):
 
Tides and Currents Weather Stations Pressure Air Temp Water Temp Dewpoint Dewpoint Depression Visibility Wind Speed Wind Dir Waves Ship Positions

Zaliv Vostok

Last reported at 2018-Apr-20 19:51 UTC. Time now 2018-Apr-23 21:30 UTC.
Position N 37°12' E 123°51'.

Length 244 m; draft 8.4 m.

Type: Tanker. MMSI: 636014127.

Date/timePositionNaut miles runAvg speedWind from/ knotsBaromVisibWave heightAir tempDewpointWater temp
2018-Apr-20 19:51N 37°12' E 123°51'2 1.6
2018-Apr-20 18:38N 37°11' E 123°49'0 1.5
2018-Apr-20 18:30N 37°11' E 123°49'  
2018-Apr-17 13:56N 34°02' E 130°02'511.3
2018-Apr-17 13:29N 34°03' E 130°08'611.2
2018-Apr-17 12:59N 34°03' E 130°15'611.4
2018-Apr-17 12:29N 34°03' E 130°22'611.7
2018-Apr-17 12:00N 34°03' E 130°28'611.7
2018-Apr-17 11:28N 34°04' E 130°36'511.6
2018-Apr-17 11:00N 34°04' E 130°42'511.0
2018-Apr-17 10:30N 34°02' E 130°48'510.1
2018-Apr-17 10:00N 33°59' E 130°53'4 7.2
2018-Apr-17 09:30N 33°55' E 130°54'4 7.7
2018-Apr-17 09:00N 33°57' E 130°57'3 5.5
2018-Apr-17 08:30N 33°59' E 131°00'4 7.1
2018-Apr-17 08:00N 33°57' E 131°04'4 8.5
2018-Apr-17 07:30N 33°54' E 131°08'3 5.4
2018-Apr-17 07:00N 33°53' E 131°11'3 5.3
2018-Apr-17 06:30N 33°52' E 131°13'3 5.9
2018-Apr-17 06:00N 33°51' E 131°17'3 5.9
2018-Apr-17 05:30N 33°50' E 131°20'4 8.6
2018-Apr-17 05:00N 33°50' E 131°25'4 8.2
2018-Apr-17 04:30N 33°51' E 131°30'4 8.2
2018-Apr-17 03:59N 33°52' E 131°35'4 8.3
2018-Apr-17 03:31N 33°53' E 131°39'5 8.8
2018-Apr-17 02:58N 33°56' E 131°44'3 0.1
2018-Apr-16 02:17N 33°59' E 131°46'0 0.5
2018-Apr-16 01:48N 33°59' E 131°45'1 2.1
2018-Apr-16 01:16N 33°58' E 131°45'1 4.4
2018-Apr-16 00:58N 33°57' E 131°45'5 5.8
2018-Apr-16 00:05N 33°52' E 131°47'1 6.1
2018-Apr-15 23:59N 33°51' E 131°47'3 6.2
2018-Apr-15 23:30N 33°49' E 131°48'3 5.5
2018-Apr-15 23:00N 33°46' E 131°48'5 9.6
2018-Apr-15 22:30N 33°41' E 131°50'611.7
2018-Apr-15 22:00N 33°36' E 131°52'611.7
2018-Apr-15 21:28N 33°30' E 131°55'812.6
2018-Apr-15 20:48N 33°22' E 131°58'513.4
2018-Apr-15 20:25N 33°18' E 132°01'  
Track history (hours):
 
Tides and Currents Weather Stations Pressure Air Temp Water Temp Dewpoint Dewpoint Depression Visibility Wind Speed Wind Dir Waves Ship Positions

Zaliv Vostok

Last reported at 2018-Apr-20 19:51 UTC. Time now 2018-Apr-23 21:30 UTC.
Position N 37°12' E 123°51'.

Length 244 m; draft 8.4 m.

Type: Tanker. MMSI: 636014127.

Date/timePositionNaut miles runAvg speedWind from/ knotsBaromVisibWave heightAir tempDewpointWater temp
2018-Apr-20 19:51N 37°12' E 123°51'2 1.6
2018-Apr-20 18:38N 37°11' E 123°49'0 1.5
2018-Apr-20 18:30N 37°11' E 123°49'  
2018-Apr-17 13:56N 34°02' E 130°02'511.3
2018-Apr-17 13:29N 34°03' E 130°08'611.2
2018-Apr-17 12:59N 34°03' E 130°15'611.4
2018-Apr-17 12:29N 34°03' E 130°22'611.7
2018-Apr-17 12:00N 34°03' E 130°28'611.7
2018-Apr-17 11:28N 34°04' E 130°36'511.6
2018-Apr-17 11:00N 34°04' E 130°42'511.0
2018-Apr-17 10:30N 34°02' E 130°48'510.1
2018-Apr-17 10:00N 33°59' E 130°53'4 7.2
2018-Apr-17 09:30N 33°55' E 130°54'4 7.7
2018-Apr-17 09:00N 33°57' E 130°57'3 5.5
2018-Apr-17 08:30N 33°59' E 131°00'4 7.1
2018-Apr-17 08:00N 33°57' E 131°04'4 8.5
2018-Apr-17 07:30N 33°54' E 131°08'3 5.4
2018-Apr-17 07:00N 33°53' E 131°11'3 5.3
2018-Apr-17 06:30N 33°52' E 131°13'3 5.9
2018-Apr-17 06:00N 33°51' E 131°17'3 5.9
2018-Apr-17 05:30N 33°50' E 131°20'4 8.6
2018-Apr-17 05:00N 33°50' E 131°25'4 8.2
2018-Apr-17 04:30N 33°51' E 131°30'4 8.2
2018-Apr-17 03:59N 33°52' E 131°35'4 8.3
2018-Apr-17 03:31N 33°53' E 131°39'5 8.8
2018-Apr-17 02:58N 33°56' E 131°44'3 0.1
2018-Apr-16 02:17N 33°59' E 131°46'0 0.5
2018-Apr-16 01:48N 33°59' E 131°45'1 2.1
2018-Apr-16 01:16N 33°58' E 131°45'1 4.4
2018-Apr-16 00:58N 33°57' E 131°45'5 5.8
2018-Apr-16 00:05N 33°52' E 131°47'1 6.1
2018-Apr-15 23:59N 33°51' E 131°47'3 6.2
2018-Apr-15 23:30N 33°49' E 131°48'3 5.5
2018-Apr-15 23:00N 33°46' E 131°48'5 9.6
2018-Apr-15 22:30N 33°41' E 131°50'611.7
2018-Apr-15 22:00N 33°36' E 131°52'611.7
2018-Apr-15 21:28N 33°30' E 131°55'812.6
2018-Apr-15 20:48N 33°22' E 131°58'513.4
2018-Apr-15 20:25N 33°18' E 132°01'  

Dump ship's entire track history